sensor_id;sensor_type;location;lat;lon;timestamp;temperature;humidity
43607;DHT22;29197;44.788;10.366;2023-11-19T00:02:24;10.60;99.90
43607;DHT22;29197;44.788;10.366;2023-11-19T00:05:14;10.70;99.90
43607;DHT22;29197;44.788;10.366;2023-11-19T00:08:03;10.70;99.90
43607;DHT22;29197;44.788;10.366;2023-11-19T00:10:53;10.70;99.90
43607;DHT22;29197;44.788;10.366;2023-11-19T00:13:43;10.70;99.90
43607;DHT22;29197;44.788;10.366;2023-11-19T00:16:31;10.70;99.90
43607;DHT22;29197;44.788;10.366;2023-11-19T00:19:20;10.70;99.90
43607;DHT22;29197;44.788;10.366;2023-11-19T00:22:08;10.60;99.90
43607;DHT22;29197;44.788;10.366;2023-11-19T00:24:57;10.60;99.90
43607;DHT22;29197;44.788;10.366;2023-11-19T00:27:46;10.70;99.90
43607;DHT22;29197;44.788;10.366;2023-11-19T00:30:36;10.70;99.90
43607;DHT22;29197;44.788;10.366;2023-11-19T00:33:25;10.60;99.90
43607;DHT22;29197;44.788;10.366;2023-11-19T00:36:13;10.60;99.90
43607;DHT22;29197;44.788;10.366;2023-11-19T00:39:02;10.60;99.90
43607;DHT22;29197;44.788;10.366;2023-11-19T00:41:51;10.60;99.90
43607;DHT22;29197;44.788;10.366;2023-11-19T00:44:39;10.50;99.90
43607;DHT22;29197;44.788;10.366;2023-11-19T00:47:38;10.40;99.90
43607;DHT22;29197;44.788;10.366;2023-11-19T00:50:27;10.30;99.90
43607;DHT22;29197;44.788;10.366;2023-11-19T00:53:21;10.40;99.90
43607;DHT22;29197;44.788;10.366;2023-11-19T00:56:11;10.40;99.90
43607;DHT22;29197;44.788;10.366;2023-11-19T00:59:00;10.30;99.90
43607;DHT22;29197;44.788;10.366;2023-11-19T01:01:49;10.10;99.90
43607;DHT22;29197;44.788;10.366;2023-11-19T01:04:40;10.10;99.90
43607;DHT22;29197;44.788;10.366;2023-11-19T01:07:28;10.10;99.90
43607;DHT22;29197;44.788;10.366;2023-11-19T01:10:17;10.10;99.90
43607;DHT22;29197;44.788;10.366;2023-11-19T01:13:06;10.10;99.90
43607;DHT22;29197;44.788;10.366;2023-11-19T01:15:55;10.10;99.90
43607;DHT22;29197;44.788;10.366;2023-11-19T01:18:44;10.10;99.90
43607;DHT22;29197;44.788;10.366;2023-11-19T01:21:34;10.10;99.90
43607;DHT22;29197;44.788;10.366;2023-11-19T01:24:22;10.10;99.90
43607;DHT22;29197;44.788;10.366;2023-11-19T01:27:11;10.10;99.90
43607;DHT22;29197;44.788;10.366;2023-11-19T01:30:00;10.10;99.90
43607;DHT22;29197;44.788;10.366;2023-11-19T01:32:51;10.10;99.90
43607;DHT22;29197;44.788;10.366;2023-11-19T01:36:06;10.00;99.90
43607;DHT22;29197;44.788;10.366;2023-11-19T01:41:45;9.60;99.90
43607;DHT22;29197;44.788;10.366;2023-11-19T01:44:34;9.40;99.90
43607;DHT22;29197;44.788;10.366;2023-11-19T01:47:22;9.50;99.90
43607;DHT22;29197;44.788;10.366;2023-11-19T01:53:01;9.60;99.90
43607;DHT22;29197;44.788;10.366;2023-11-19T01:55:51;9.60;99.90
43607;DHT22;29197;44.788;10.366;2023-11-19T02:04:20;9.70;99.90
43607;DHT22;29197;44.788;10.366;2023-11-19T02:07:09;9.70;99.90
43607;DHT22;29197;44.788;10.366;2023-11-19T02:09:58;9.40;99.90
43607;DHT22;29197;44.788;10.366;2023-11-19T02:15:40;9.40;99.90
43607;DHT22;29197;44.788;10.366;2023-11-19T02:18:29;9.50;99.90
43607;DHT22;29197;44.788;10.366;2023-11-19T02:21:18;9.60;99.90
43607;DHT22;29197;44.788;10.366;2023-11-19T02:24:08;9.50;99.90
43607;DHT22;29197;44.788;10.366;2023-11-19T02:29:54;9.40;99.90
43607;DHT22;29197;44.788;10.366;2023-11-19T02:32:42;9.20;99.90
43607;DHT22;29197;44.788;10.366;2023-11-19T02:35:31;9.30;99.90
43607;DHT22;29197;44.788;10.366;2023-11-19T02:38:20;9.20;99.90
43607;DHT22;29197;44.788;10.366;2023-11-19T02:41:10;9.20;99.90
43607;DHT22;29197;44.788;10.366;2023-11-19T02:43:58;9.20;99.90
43607;DHT22;29197;44.788;10.366;2023-11-19T02:46:49;9.30;99.90
43607;DHT22;29197;44.788;10.366;2023-11-19T02:49:38;9.30;99.90
43607;DHT22;29197;44.788;10.366;2023-11-19T02:52:27;9.20;99.90
43607;DHT22;29197;44.788;10.366;2023-11-19T02:55:15;9.20;99.90
43607;DHT22;29197;44.788;10.366;2023-11-19T02:58:05;9.20;99.90
43607;DHT22;29197;44.788;10.366;2023-11-19T03:00:59;9.30;99.90
43607;DHT22;29197;44.788;10.366;2023-11-19T03:04:00;9.40;99.90
43607;DHT22;29197;44.788;10.366;2023-11-19T03:06:50;9.40;99.90
43607;DHT22;29197;44.788;10.366;2023-11-19T03:09:40;9.40;99.90
43607;DHT22;29197;44.788;10.366;2023-11-19T03:12:31;9.40;99.90
43607;DHT22;29197;44.788;10.366;2023-11-19T03:15:20;9.40;99.90
43607;DHT22;29197;44.788;10.366;2023-11-19T03:18:08;9.40;99.90
43607;DHT22;29197;44.788;10.366;2023-11-19T03:20:58;9.50;99.90
43607;DHT22;29197;44.788;10.366;2023-11-19T03:23:47;9.50;99.90
43607;DHT22;29197;44.788;10.366;2023-11-19T03:26:35;9.50;99.90
43607;DHT22;29197;44.788;10.366;2023-11-19T03:40:42;9.30;99.90
43607;DHT22;29197;44.788;10.366;2023-11-19T03:43:31;9.20;99.90
43607;DHT22;29197;44.788;10.366;2023-11-19T03:46:21;9.20;99.90
43607;DHT22;29197;44.788;10.366;2023-11-19T04:57:06;8.70;99.90
43607;DHT22;29197;44.788;10.366;2023-11-19T04:59:57;8.70;99.90
43607;DHT22;29197;44.788;10.366;2023-11-19T05:02:46;8.80;99.90
43607;DHT22;29197;44.788;10.366;2023-11-19T05:05:35;8.90;99.90
43607;DHT22;29197;44.788;10.366;2023-11-19T05:08:24;9.00;99.90
43607;DHT22;29197;44.788;10.366;2023-11-19T05:11:13;9.00;99.90
43607;DHT22;29197;44.788;10.366;2023-11-19T05:14:05;9.00;99.90
43607;DHT22;29197;44.788;10.366;2023-11-19T05:16:54;9.00;99.90
43607;DHT22;29197;44.788;10.366;2023-11-19T05:19:44;9.00;99.90
43607;DHT22;29197;44.788;10.366;2023-11-19T05:22:32;8.80;99.90
43607;DHT22;29197;44.788;10.366;2023-11-19T05:25:21;8.80;99.90
43607;DHT22;29197;44.788;10.366;2023-11-19T05:28:10;8.70;99.90
43607;DHT22;29197;44.788;10.366;2023-11-19T05:30:58;8.80;99.90
43607;DHT22;29197;44.788;10.366;2023-11-19T05:33:47;8.80;99.90
43607;DHT22;29197;44.788;10.366;2023-11-19T05:36:37;8.80;99.90
43607;DHT22;29197;44.788;10.366;2023-11-19T05:39:27;8.80;99.90
43607;DHT22;29197;44.788;10.366;2023-11-19T05:42:16;8.90;99.90
43607;DHT22;29197;44.788;10.366;2023-11-19T05:45:06;9.00;99.90
43607;DHT22;29197;44.788;10.366;2023-11-19T05:47:56;9.00;99.90
43607;DHT22;29197;44.788;10.366;2023-11-19T05:50:44;9.00;99.90
43607;DHT22;29197;44.788;10.366;2023-11-19T05:53:34;9.00;99.90
43607;DHT22;29197;44.788;10.366;2023-11-19T05:56:23;9.00;99.90
43607;DHT22;29197;44.788;10.366;2023-11-19T05:59:13;9.00;99.90
43607;DHT22;29197;44.788;10.366;2023-11-19T06:02:04;9.00;99.90
43607;DHT22;29197;44.788;10.366;2023-11-19T06:04:54;8.90;99.90
43607;DHT22;29197;44.788;10.366;2023-11-19T06:07:42;9.00;99.90
43607;DHT22;29197;44.788;10.366;2023-11-19T06:10:32;8.90;99.90
43607;DHT22;29197;44.788;10.366;2023-11-19T06:13:21;9.00;99.90
43607;DHT22;29197;44.788;10.366;2023-11-19T06:16:11;9.40;99.90
43607;DHT22;29197;44.788;10.366;2023-11-19T06:19:00;9.00;99.90
43607;DHT22;29197;44.788;10.366;2023-11-19T06:21:49;9.00;99.90
43607;DHT22;29197;44.788;10.366;2023-11-19T06:24:38;9.10;99.90
43607;DHT22;29197;44.788;10.366;2023-11-19T06:27:29;8.90;99.90
43607;DHT22;29197;44.788;10.366;2023-11-19T06:30:18;8.90;99.90
43607;DHT22;29197;44.788;10.366;2023-11-19T06:33:06;8.90;99.90
43607;DHT22;29197;44.788;10.366;2023-11-19T06:35:55;8.80;99.90
43607;DHT22;29197;44.788;10.366;2023-11-19T06:38:44;8.80;99.90
43607;DHT22;29197;44.788;10.366;2023-11-19T06:41:33;8.80;99.90
43607;DHT22;29197;44.788;10.366;2023-11-19T06:44:22;8.80;99.90
43607;DHT22;29197;44.788;10.366;2023-11-19T06:47:12;8.90;99.90
43607;DHT22;29197;44.788;10.366;2023-11-19T06:50:00;8.90;99.90
43607;DHT22;29197;44.788;10.366;2023-11-19T06:52:52;8.90;99.90
43607;DHT22;29197;44.788;10.366;2023-11-19T06:55:41;9.00;99.90
43607;DHT22;29197;44.788;10.366;2023-11-19T06:58:29;9.00;99.90
43607;DHT22;29197;44.788;10.366;2023-11-19T07:01:20;9.00;99.90
43607;DHT22;29197;44.788;10.366;2023-11-19T07:04:10;9.00;99.90
43607;DHT22;29197;44.788;10.366;2023-11-19T07:06:59;9.00;99.90
43607;DHT22;29197;44.788;10.366;2023-11-19T07:09:48;9.00;99.90
43607;DHT22;29197;44.788;10.366;2023-11-19T07:12:37;9.00;99.90
43607;DHT22;29197;44.788;10.366;2023-11-19T07:21:05;9.10;99.90
43607;DHT22;29197;44.788;10.366;2023-11-19T07:23:54;9.20;99.90
43607;DHT22;29197;44.788;10.366;2023-11-19T07:26:44;9.20;99.90
43607;DHT22;29197;44.788;10.366;2023-11-19T07:35:14;9.60;99.90
43607;DHT22;29197;44.788;10.366;2023-11-19T07:38:03;9.80;99.90
43607;DHT22;29197;44.788;10.366;2023-11-19T07:40:51;10.00;99.90
43607;DHT22;29197;44.788;10.366;2023-11-19T07:43:44;10.10;99.90
43607;DHT22;29197;44.788;10.366;2023-11-19T07:46:33;10.30;99.90
43607;DHT22;29197;44.788;10.366;2023-11-19T07:49:22;10.30;99.90
43607;DHT22;29197;44.788;10.366;2023-11-19T07:52:12;10.30;99.90
43607;DHT22;29197;44.788;10.366;2023-11-19T07:55:04;10.30;99.90
43607;DHT22;29197;44.788;10.366;2023-11-19T07:57:53;10.40;99.90
43607;DHT22;29197;44.788;10.366;2023-11-19T08:00:41;10.40;99.90
43607;DHT22;29197;44.788;10.366;2023-11-19T08:03:30;10.30;99.90
43607;DHT22;29197;44.788;10.366;2023-11-19T08:06:22;10.30;99.90
43607;DHT22;29197;44.788;10.366;2023-11-19T08:09:12;10.50;99.90
43607;DHT22;29197;44.788;10.366;2023-11-19T08:12:01;10.60;99.90
43607;DHT22;29197;44.788;10.366;2023-11-19T08:14:50;10.50;99.90
43607;DHT22;29197;44.788;10.366;2023-11-19T08:17:39;10.60;99.90
43607;DHT22;29197;44.788;10.366;2023-11-19T08:20:28;10.70;99.90
43607;DHT22;29197;44.788;10.366;2023-11-19T08:23:16;10.70;99.90
43607;DHT22;29197;44.788;10.366;2023-11-19T08:26:07;10.80;99.90
43607;DHT22;29197;44.788;10.366;2023-11-19T08:28:55;10.90;99.90
43607;DHT22;29197;44.788;10.366;2023-11-19T08:31:45;11.00;99.90
43607;DHT22;29197;44.788;10.366;2023-11-19T08:34:33;11.10;99.90
43607;DHT22;29197;44.788;10.366;2023-11-19T08:37:22;11.20;99.90
43607;DHT22;29197;44.788;10.366;2023-11-19T08:40:13;11.30;99.90
43607;DHT22;29197;44.788;10.366;2023-11-19T08:43:04;11.30;99.90
43607;DHT22;29197;44.788;10.366;2023-11-19T08:45:53;11.40;99.90
43607;DHT22;29197;44.788;10.366;2023-11-19T08:48:42;11.60;99.90
43607;DHT22;29197;44.788;10.366;2023-11-19T08:51:30;11.60;99.90
43607;DHT22;29197;44.788;10.366;2023-11-19T08:54:19;11.70;99.90
43607;DHT22;29197;44.788;10.366;2023-11-19T08:57:09;11.90;99.90
43607;DHT22;29197;44.788;10.366;2023-11-19T08:59:59;12.00;99.90
43607;DHT22;29197;44.788;10.366;2023-11-19T09:02:48;12.10;99.90
43607;DHT22;29197;44.788;10.366;2023-11-19T09:05:37;12.20;99.90
43607;DHT22;29197;44.788;10.366;2023-11-19T09:08:26;12.40;99.90
43607;DHT22;29197;44.788;10.366;2023-11-19T09:11:14;12.50;99.90
43607;DHT22;29197;44.788;10.366;2023-11-19T09:14:03;12.60;99.90
43607;DHT22;29197;44.788;10.366;2023-11-19T09:16:53;12.70;99.90
43607;DHT22;29197;44.788;10.366;2023-11-19T09:19:43;12.70;99.90
43607;DHT22;29197;44.788;10.366;2023-11-19T09:22:31;12.80;99.90
43607;DHT22;29197;44.788;10.366;2023-11-19T09:25:20;12.90;99.90
43607;DHT22;29197;44.788;10.366;2023-11-19T09:28:08;13.00;99.90
43607;DHT22;29197;44.788;10.366;2023-11-19T09:30:57;13.10;99.90
43607;DHT22;29197;44.788;10.366;2023-11-19T09:33:48;13.20;99.90
43607;DHT22;29197;44.788;10.366;2023-11-19T09:36:36;13.30;99.90
43607;DHT22;29197;44.788;10.366;2023-11-19T09:39:25;13.40;99.90
43607;DHT22;29197;44.788;10.366;2023-11-19T09:42:13;13.60;99.90
43607;DHT22;29197;44.788;10.366;2023-11-19T09:45:05;13.80;99.90
43607;DHT22;29197;44.788;10.366;2023-11-19T09:48:00;13.90;99.90
43607;DHT22;29197;44.788;10.366;2023-11-19T09:50:52;14.10;99.90
43607;DHT22;29197;44.788;10.366;2023-11-19T09:53:40;14.30;99.90
43607;DHT22;29197;44.788;10.366;2023-11-19T09:56:29;14.40;99.90
43607;DHT22;29197;44.788;10.366;2023-11-19T09:59:18;14.50;99.90
43607;DHT22;29197;44.788;10.366;2023-11-19T10:02:07;14.70;99.90
43607;DHT22;29197;44.788;10.366;2023-11-19T10:04:58;14.80;99.90
43607;DHT22;29197;44.788;10.366;2023-11-19T10:07:49;15.00;99.90
43607;DHT22;29197;44.788;10.366;2023-11-19T10:10:37;15.10;99.90
43607;DHT22;29197;44.788;10.366;2023-11-19T10:13:26;15.10;99.90
43607;DHT22;29197;44.788;10.366;2023-11-19T10:16:18;15.20;99.90
43607;DHT22;29197;44.788;10.366;2023-11-19T10:21:56;15.20;99.90
43607;DHT22;29197;44.788;10.366;2023-11-19T10:24:46;15.70;99.90
43607;DHT22;29197;44.788;10.366;2023-11-19T10:27:42;15.80;99.90
43607;DHT22;29197;44.788;10.366;2023-11-19T10:30:32;15.80;99.90
43607;DHT22;29197;44.788;10.366;2023-11-19T10:33:21;15.90;99.90
43607;DHT22;29197;44.788;10.366;2023-11-19T10:36:10;16.00;99.90
43607;DHT22;29197;44.788;10.366;2023-11-19T10:39:00;16.00;99.90
43607;DHT22;29197;44.788;10.366;2023-11-19T10:41:50;16.00;99.90
43607;DHT22;29197;44.788;10.366;2023-11-19T10:44:42;16.00;99.90
43607;DHT22;29197;44.788;10.366;2023-11-19T10:47:32;15.90;99.90
43607;DHT22;29197;44.788;10.366;2023-11-19T10:50:25;16.00;99.90
43607;DHT22;29197;44.788;10.366;2023-11-19T10:53:14;16.00;99.90
43607;DHT22;29197;44.788;10.366;2023-11-19T10:56:05;16.10;99.90
43607;DHT22;29197;44.788;10.366;2023-11-19T10:58:58;16.10;99.90
43607;DHT22;29197;44.788;10.366;2023-11-19T11:01:48;16.10;99.90
43607;DHT22;29197;44.788;10.366;2023-11-19T11:04:40;16.20;99.90
43607;DHT22;29197;44.788;10.366;2023-11-19T11:07:31;16.30;99.90
43607;DHT22;29197;44.788;10.366;2023-11-19T11:10:28;16.20;99.90
43607;DHT22;29197;44.788;10.366;2023-11-19T11:13:22;16.10;99.90
43607;DHT22;29197;44.788;10.366;2023-11-19T11:16:13;16.20;99.90
43607;DHT22;29197;44.788;10.366;2023-11-19T11:19:03;16.10;99.90
43607;DHT22;29197;44.788;10.366;2023-11-19T11:21:54;16.20;99.90
43607;DHT22;29197;44.788;10.366;2023-11-19T11:25:18;16.20;99.90
43607;DHT22;29197;44.788;10.366;2023-11-19T11:28:18;16.30;99.90
43607;DHT22;29197;44.788;10.366;2023-11-19T11:34:21;16.60;99.90
43607;DHT22;29197;44.788;10.366;2023-11-19T11:37:18;16.70;99.90
43607;DHT22;29197;44.788;10.366;2023-11-19T11:40:14;16.90;99.90
43607;DHT22;29197;44.788;10.366;2023-11-19T11:43:03;17.00;99.90
43607;DHT22;29197;44.788;10.366;2023-11-19T11:45:52;16.90;99.90
43607;DHT22;29197;44.788;10.366;2023-11-19T11:48:46;17.00;99.90
43607;DHT22;29197;44.788;10.366;2023-11-19T11:51:57;17.10;99.90
43607;DHT22;29197;44.788;10.366;2023-11-19T11:54:46;17.30;99.90
43607;DHT22;29197;44.788;10.366;2023-11-19T11:57:36;17.60;99.90
43607;DHT22;29197;44.788;10.366;2023-11-19T12:00:27;17.80;99.90
43607;DHT22;29197;44.788;10.366;2023-11-19T12:03:20;18.00;99.90
43607;DHT22;29197;44.788;10.366;2023-11-19T12:06:12;18.10;99.90
43607;DHT22;29197;44.788;10.366;2023-11-19T12:12:07;18.40;99.90
43607;DHT22;29197;44.788;10.366;2023-11-19T12:15:04;18.70;99.90
43607;DHT22;29197;44.788;10.366;2023-11-19T12:17:54;18.80;99.90
43607;DHT22;29197;44.788;10.366;2023-11-19T12:20:43;18.80;99.90
43607;DHT22;29197;44.788;10.366;2023-11-19T12:23:33;18.80;99.90
43607;DHT22;29197;44.788;10.366;2023-11-19T12:32:09;19.40;99.90
43607;DHT22;29197;44.788;10.366;2023-11-19T12:35:01;19.40;99.90
43607;DHT22;29197;44.788;10.366;2023-11-19T12:37:51;19.30;99.90
43607;DHT22;29197;44.788;10.366;2023-11-19T12:40:41;19.40;99.90
43607;DHT22;29197;44.788;10.366;2023-11-19T12:43:30;19.40;99.90
43607;DHT22;29197;44.788;10.366;2023-11-19T12:46:20;19.50;99.90
43607;DHT22;29197;44.788;10.366;2023-11-19T12:49:11;19.60;99.90
43607;DHT22;29197;44.788;10.366;2023-11-19T12:52:01;19.60;99.90
43607;DHT22;29197;44.788;10.366;2023-11-19T12:54:50;19.50;99.90
43607;DHT22;29197;44.788;10.366;2023-11-19T12:57:41;19.50;99.90
43607;DHT22;29197;44.788;10.366;2023-11-19T13:00:30;19.50;99.90
43607;DHT22;29197;44.788;10.366;2023-11-19T13:03:29;19.50;99.90
43607;DHT22;29197;44.788;10.366;2023-11-19T13:06:19;19.40;99.90
43607;DHT22;29197;44.788;10.366;2023-11-19T13:09:08;19.40;99.90
43607;DHT22;29197;44.788;10.366;2023-11-19T13:12:12;19.30;99.90
43607;DHT22;29197;44.788;10.366;2023-11-19T13:15:02;19.20;99.90
43607;DHT22;29197;44.788;10.366;2023-11-19T13:17:51;19.10;99.90
43607;DHT22;29197;44.788;10.366;2023-11-19T13:20:40;18.90;99.90
43607;DHT22;29197;44.788;10.366;2023-11-19T13:40:26;19.20;99.90
43607;DHT22;29197;44.788;10.366;2023-11-19T13:43:15;18.70;99.90
43607;DHT22;29197;44.788;10.366;2023-11-19T13:46:04;18.50;99.90
43607;DHT22;29197;44.788;10.366;2023-11-19T13:48:54;18.30;99.90
43607;DHT22;29197;44.788;10.366;2023-11-19T13:51:43;18.10;99.90
43607;DHT22;29197;44.788;10.366;2023-11-19T13:54:32;17.90;99.90
43607;DHT22;29197;44.788;10.366;2023-11-19T13:57:21;17.70;99.90
43607;DHT22;29197;44.788;10.366;2023-11-19T14:03:01;17.30;99.90
43607;DHT22;29197;44.788;10.366;2023-11-19T14:05:51;17.20;99.90
43607;DHT22;29197;44.788;10.366;2023-11-19T14:08:42;16.90;99.90
43607;DHT22;29197;44.788;10.366;2023-11-19T14:11:30;16.80;99.90
43607;DHT22;29197;44.788;10.366;2023-11-19T14:14:19;16.60;99.90
43607;DHT22;29197;44.788;10.366;2023-11-19T14:17:08;16.50;99.90
43607;DHT22;29197;44.788;10.366;2023-11-19T14:20:01;16.30;99.90
43607;DHT22;29197;44.788;10.366;2023-11-19T14:22:53;16.30;99.90
43607;DHT22;29197;44.788;10.366;2023-11-19T14:25:42;16.10;99.90
43607;DHT22;29197;44.788;10.366;2023-11-19T18:23:39;13.00;99.90
43607;DHT22;29197;44.788;10.366;2023-11-19T18:26:28;12.80;99.90
43607;DHT22;29197;44.788;10.366;2023-11-19T18:29:19;12.60;99.90
43607;DHT22;29197;44.788;10.366;2023-11-19T18:32:08;12.40;99.90
43607;DHT22;29197;44.788;10.366;2023-11-19T18:34:59;12.30;99.90
43607;DHT22;29197;44.788;10.366;2023-11-19T18:37:49;12.30;99.90
43607;DHT22;29197;44.788;10.366;2023-11-19T18:40:38;12.20;99.90
43607;DHT22;29197;44.788;10.366;2023-11-19T18:57:32;12.60;99.90
43607;DHT22;29197;44.788;10.366;2023-11-19T19:00:21;12.50;99.90
43607;DHT22;29197;44.788;10.366;2023-11-19T22:16:44;10.90;99.90
43607;DHT22;29197;44.788;10.366;2023-11-19T22:19:33;10.90;99.90
43607;DHT22;29197;44.788;10.366;2023-11-19T22:22:22;11.00;99.90
43607;DHT22;29197;44.788;10.366;2023-11-19T22:25:10;11.00;99.90
43607;DHT22;29197;44.788;10.366;2023-11-19T22:28:00;11.00;99.90
43607;DHT22;29197;44.788;10.366;2023-11-19T22:30:49;10.80;99.90
43607;DHT22;29197;44.788;10.366;2023-11-19T22:33:40;10.80;99.90
43607;DHT22;29197;44.788;10.366;2023-11-19T22:36:29;10.60;99.90
43607;DHT22;29197;44.788;10.366;2023-11-19T22:39:17;10.40;99.90
43607;DHT22;29197;44.788;10.366;2023-11-19T22:42:06;10.40;99.90
43607;DHT22;29197;44.788;10.366;2023-11-19T22:44:56;10.60;99.90
43607;DHT22;29197;44.788;10.366;2023-11-19T22:47:46;10.60;99.90
43607;DHT22;29197;44.788;10.366;2023-11-19T22:50:37;10.60;99.90
43607;DHT22;29197;44.788;10.366;2023-11-19T22:53:25;10.60;99.90
43607;DHT22;29197;44.788;10.366;2023-11-19T22:56:14;10.60;99.90
43607;DHT22;29197;44.788;10.366;2023-11-19T22:59:04;10.40;99.90
43607;DHT22;29197;44.788;10.366;2023-11-19T23:01:54;10.50;99.90
43607;DHT22;29197;44.788;10.366;2023-11-19T23:04:43;10.40;99.90
43607;DHT22;29197;44.788;10.366;2023-11-19T23:07:31;10.40;99.90
43607;DHT22;29197;44.788;10.366;2023-11-19T23:10:20;10.60;99.90
43607;DHT22;29197;44.788;10.366;2023-11-19T23:13:08;10.80;99.90
43607;DHT22;29197;44.788;10.366;2023-11-19T23:15:58;10.90;99.90
43607;DHT22;29197;44.788;10.366;2023-11-19T23:18:48;10.90;99.90
43607;DHT22;29197;44.788;10.366;2023-11-19T23:21:37;10.90;99.90
43607;DHT22;29197;44.788;10.366;2023-11-19T23:24:29;10.80;99.90
43607;DHT22;29197;44.788;10.366;2023-11-19T23:27:18;10.80;99.90
43607;DHT22;29197;44.788;10.366;2023-11-19T23:30:07;10.00;99.90
43607;DHT22;29197;44.788;10.366;2023-11-19T23:32:56;10.70;99.90
43607;DHT22;29197;44.788;10.366;2023-11-19T23:35:46;10.80;99.90
43607;DHT22;29197;44.788;10.366;2023-11-19T23:38:35;10.50;99.90
43607;DHT22;29197;44.788;10.366;2023-11-19T23:41:24;10.60;99.90
43607;DHT22;29197;44.788;10.366;2023-11-19T23:44:16;10.60;99.90
43607;DHT22;29197;44.788;10.366;2023-11-19T23:47:05;10.60;99.90
43607;DHT22;29197;44.788;10.366;2023-11-19T23:49:53;10.90;99.90
43607;DHT22;29197;44.788;10.366;2023-11-19T23:52:44;10.90;99.90
43607;DHT22;29197;44.788;10.366;2023-11-19T23:55:35;11.00;99.90
43607;DHT22;29197;44.788;10.366;2023-11-19T23:58:23;11.00;99.90
